Time;durP1;ratioP1;P1;durP2;ratioP2;P2;SDS_P1;SDS_P2;PMS_P1;PMS_P2;Temp;Humidity;BMP_temperature;BMP_pressure;BME280_temperature;BME280_humidity;BME280_pressure;Samples;Min_cycle;Max_cycle;Signal;HPM_P1;HPM_P2
2022/02/06 00:00:07;;;;;;;5.50;2.17;;;7.40;99.90;;;;;;5049114;28;20424;-70
2022/02/06 00:02:36;;;;;;;4.63;2.37;;;7.40;99.90;;;;;;5050792;28;20420;-70
2022/02/06 00:05:03;;;;;;;2.37;2.10;;;7.40;99.90;;;;;;5050341;28;20428;-69
2022/02/06 00:07:30;;;;;;;5.60;1.97;;;7.40;99.90;;;;;;5050322;28;20527;-70
2022/02/06 00:09:56;;;;;;;4.63;2.23;;;7.30;99.90;;;;;;5053331;28;21033;-70
2022/02/06 00:12:21;;;;;;;2.93;1.97;;;7.30;99.90;;;;;;5070407;28;20542;-70
2022/02/06 00:14:47;;;;;;;5.37;2.90;;;7.30;99.90;;;;;;5070369;28;20177;-70
2022/02/06 00:17:12;;;;;;;5.50;2.30;;;7.20;99.90;;;;;;5070162;28;20177;-68
2022/02/06 00:19:41;;;;;;;6.47;2.37;;;7.20;99.90;;;;;;5069487;28;20685;-70
2022/02/06 00:22:09;;;;;;;4.63;2.17;;;7.20;99.90;;;;;;5050372;28;20237;-69
2022/02/06 00:24:44;;;;;;;5.70;2.50;;;7.10;99.90;;;;;;5050274;28;20536;-70
2022/02/06 00:27:22;;;;;;;5.90;3.10;;;7.10;99.90;;;;;;5049669;28;20912;-70
2022/02/06 00:29:55;;;;;;;2.20;2.00;;;7.10;99.90;;;;;;5030469;28;20934;-70
2022/02/06 00:32:32;;;;;;;2.83;2.07;;;7.10;99.90;;;;;;5045346;28;20436;-70
2022/02/06 00:38:06;;;;;;;5.90;3.00;;;7.10;99.90;;;;;;5050137;28;20400;-70
2022/02/06 00:41:10;;;;;;;5.47;2.70;;;7.10;99.90;;;;;;5029949;28;20569;-69
2022/02/06 00:43:29;;;;;;;2.93;2.27;;;7.00;99.90;;;;;;5029943;28;20517;-69
2022/02/06 00:45:55;;;;;;;7.50;3.20;;;7.00;99.90;;;;;;5029523;28;20887;-70
2022/02/06 00:48:25;;;;;;;5.97;2.63;;;7.00;99.90;;;;;;5031445;28;20210;-70
2022/02/06 00:51:02;;;;;;;5.50;3.00;;;7.00;99.90;;;;;;5049535;28;20206;-69
2022/02/06 00:53:28;;;;;;;3.40;2.73;;;7.10;99.90;;;;;;5049644;28;20949;-70
2022/02/06 00:55:53;;;;;;;9.43;3.63;;;7.10;99.90;;;;;;5049627;28;20503;-70
2022/02/06 00:58:19;;;;;;;4.73;2.53;;;7.00;99.90;;;;;;5049513;28;20269;-69
2022/02/06 01:00:44;;;;;;;3.60;2.50;;;7.10;99.90;;;;;;5032856;28;20556;-69
2022/02/06 01:03:10;;;;;;;4.97;2.33;;;7.00;99.90;;;;;;5049489;28;20838;-69
2022/02/06 01:05:35;;;;;;;5.90;2.53;;;7.00;99.90;;;;;;5049534;28;20182;-69
2022/02/06 01:08:01;;;;;;;4.40;2.80;;;7.00;99.90;;;;;;5049555;28;20178;-68
2022/02/06 01:10:27;;;;;;;8.57;2.57;;;7.10;99.90;;;;;;5050543;28;20703;-68
2022/02/06 01:13:01;;;;;;;5.63;2.37;;;7.10;99.90;;;;;;5049607;28;20600;-68
2022/02/06 01:15:34;;;;;;;3.53;2.47;;;7.00;99.90;;;;;;5031216;28;20412;-69
2022/02/06 01:18:06;;;;;;;6.50;2.43;;;7.00;99.90;;;;;;5049090;28;20510;-69
2022/02/06 01:20:37;;;;;;;3.23;2.93;;;7.00;99.90;;;;;;5032168;28;20464;-69
2022/02/06 01:23:11;;;;;;;6.20;3.30;;;7.10;99.90;;;;;;5048671;28;20425;-68
2022/02/06 01:25:47;;;;;;;5.83;3.60;;;7.10;99.90;;;;;;5025755;28;20491;-67
2022/02/06 01:28:13;;;;;;;6.50;2.73;;;7.20;99.90;;;;;;5047382;28;20440;-69
2022/02/06 01:30:52;;;;;;;5.33;2.97;;;7.20;99.90;;;;;;5036251;28;20525;-68
2022/02/06 01:33:25;;;;;;;8.13;3.03;;;7.20;99.90;;;;;;5049120;28;20511;-70
2022/02/06 01:36:06;;;;;;;8.10;3.17;;;7.20;99.90;;;;;;5039176;28;21112;-70
2022/02/06 01:39:00;;;;;;;4.57;3.03;;;7.30;99.90;;;;;;5029199;28;20878;-69
2022/02/06 01:41:25;;;;;;;4.87;3.20;;;7.30;99.90;;;;;;5040941;28;20531;-69
2022/02/06 01:57:09;;;;;;;6.33;2.73;;;7.30;99.90;;;;;;4976350;28;20494;-70
2022/02/06 02:00:41;;;;;;;6.40;3.23;;;7.40;99.90;;;;;;4950188;28;20463;-70
2022/02/06 02:06:18;;;;;;;4.03;3.13;;;7.40;99.90;;;;;;4939721;28;20548;-69
2022/02/06 02:11:51;;;;;;;4.50;3.10;;;7.40;99.90;;;;;;4976705;28;20586;-68
2022/02/06 02:14:22;;;;;;;4.60;2.90;;;7.40;99.90;;;;;;4973642;28;20575;-68
2022/02/06 02:17:19;;;;;;;12.73;3.70;;;7.40;99.90;;;;;;4969366;28;20463;-70
2022/02/06 02:22:49;;;;;;;6.30;3.43;;;7.40;99.90;;;;;;4975524;28;20606;-70
2022/02/06 02:31:13;;;;;;;9.50;2.83;;;7.30;99.90;;;;;;5076593;22;20496;-68
2022/02/06 02:47:11;;;;;;;8.63;3.07;;;7.30;99.90;;;;;;5058731;28;20783;-69
2022/02/06 02:49:37;;;;;;;6.20;3.27;;;7.30;99.90;;;;;;5058829;28;20268;-70
2022/02/06 02:52:09;;;;;;;6.10;3.13;;;7.30;99.90;;;;;;5058852;28;21032;-70
2022/02/06 02:54:36;;;;;;;10.27;3.50;;;7.20;99.90;;;;;;5059222;28;20409;-69
2022/02/06 02:57:21;;;;;;;9.33;3.10;;;7.20;99.90;;;;;;5071751;28;20423;-68
2022/02/06 03:00:22;;;;;;;6.27;2.90;;;7.30;99.90;;;;;;5074894;28;20455;-68
2022/02/06 03:02:33;;;;;;;7.27;3.13;;;7.30;99.90;;;;;;5074819;28;20420;-68
2022/02/06 03:05:00;;;;;;;3.50;2.57;;;7.30;99.90;;;;;;5074260;28;20475;-69
2022/02/06 03:07:26;;;;;;;9.50;3.57;;;7.30;99.90;;;;;;5075654;28;20218;-69
2022/02/06 03:09:51;;;;;;;4.43;3.03;;;7.30;99.90;;;;;;5073758;28;20475;-68
2022/02/06 03:12:23;;;;;;;5.53;3.00;;;7.30;99.90;;;;;;5074155;28;20175;-68
2022/02/06 03:14:56;;;;;;;3.97;3.07;;;7.30;99.90;;;;;;5071290;28;20182;-68
2022/02/06 03:17:33;;;;;;;6.03;2.93;;;7.30;99.90;;;;;;5061338;28;20410;-70
2022/02/06 03:20:06;;;;;;;7.37;3.33;;;7.30;99.90;;;;;;5071705;28;20478;-68
2022/02/06 03:22:47;;;;;;;8.93;2.90;;;7.30;99.90;;;;;;5057802;28;20878;-68
2022/02/06 03:25:18;;;;;;;4.77;3.03;;;7.30;99.90;;;;;;5021507;28;20504;-69
2022/02/06 03:27:44;;;;;;;5.30;2.80;;;7.30;99.90;;;;;;5035399;28;20829;-68
2022/02/06 03:30:10;;;;;;;3.60;2.57;;;7.30;99.90;;;;;;5035992;28;20465;-68
2022/02/06 03:32:36;;;;;;;9.60;3.40;;;7.30;99.90;;;;;;5052947;28;20179;-69
2022/02/06 03:35:02;;;;;;;7.43;3.10;;;7.30;99.90;;;;;;5063772;28;20418;-69
2022/02/06 03:37:28;;;;;;;9.33;3.03;;;7.30;99.90;;;;;;5057736;28;20241;-70
2022/02/06 03:39:55;;;;;;;5.93;3.33;;;7.30;99.90;;;;;;5057587;28;20471;-69
2022/02/06 03:42:23;;;;;;;7.77;3.00;;;7.40;99.90;;;;;;5039172;28;20269;-69
2022/02/06 03:44:52;;;;;;;3.80;3.03;;;7.40;99.90;;;;;;5055302;28;20440;-70
2022/02/06 03:47:21;;;;;;;7.83;3.33;;;7.40;99.90;;;;;;5055641;28;20405;-70
2022/02/06 03:50:04;;;;;;;4.17;3.23;;;7.40;99.90;;;;;;5055905;28;20456;-69
2022/02/06 03:52:43;;;;;;;3.77;2.80;;;7.40;99.90;;;;;;5055930;28;20450;-69
2022/02/06 03:55:09;;;;;;;18.07;3.70;;;7.40;99.90;;;;;;5055293;28;20412;-70
2022/02/06 03:57:35;;;;;;;5.33;3.63;;;7.40;99.90;;;;;;5055323;28;20412;-70
2022/02/06 04:00:01;;;;;;;3.37;3.07;;;7.40;99.90;;;;;;5055681;28;20197;-69
2022/02/06 04:02:27;;;;;;;5.63;2.97;;;7.40;99.90;;;;;;5037063;28;20179;-70
2022/02/06 04:04:52;;;;;;;5.23;3.70;;;7.30;99.90;;;;;;5054632;28;20425;-70
2022/02/06 04:07:18;;;;;;;8.57;3.47;;;7.30;99.90;;;;;;5054867;28;20177;-69
2022/02/06 04:09:49;;;;;;;6.50;3.50;;;7.30;99.90;;;;;;5054809;28;20200;-69
2022/02/06 04:12:17;;;;;;;7.60;3.43;;;7.40;99.90;;;;;;5036965;28;20174;-69
2022/02/06 04:14:54;;;;;;;6.67;3.57;;;7.30;99.90;;;;;;5037146;28;20411;-68
2022/02/06 04:17:24;;;;;;;6.83;3.50;;;7.30;99.90;;;;;;5054444;28;20393;-69
2022/02/06 04:19:53;;;;;;;8.30;3.83;;;7.30;99.90;;;;;;5055216;28;20520;-69
2022/02/06 04:22:20;;;;;;;4.90;3.17;;;7.30;99.90;;;;;;5055071;28;20470;-70
2022/02/06 04:24:46;;;;;;;9.67;3.40;;;7.30;99.90;;;;;;5054572;28;20499;-70
2022/02/06 04:27:12;;;;;;;5.40;3.27;;;7.30;99.90;;;;;;5054576;28;20408;-70
2022/02/06 04:29:37;;;;;;;3.50;2.80;;;7.30;99.90;;;;;;5055055;28;20468;-69
2022/02/06 04:32:04;;;;;;;5.90;3.70;;;7.40;99.90;;;;;;5054871;28;20174;-69
2022/02/06 04:34:31;;;;;;;5.60;3.50;;;7.30;99.90;;;;;;5054272;28;20373;-68
2022/02/06 04:37:06;;;;;;;3.77;3.47;;;7.30;99.90;;;;;;5053935;28;20926;-69
2022/02/06 05:16:42;;;;;;;5.07;3.97;;;7.30;99.90;;;;;;5053826;28;20446;-69
2022/02/06 05:30:04;;;;;;;5.20;4.43;;;7.30;99.90;;;;;;5053664;28;20464;-69
2022/02/06 05:32:36;;;;;;;4.30;3.90;;;7.30;99.90;;;;;;5053032;28;20420;-69
2022/02/06 05:35:04;;;;;;;8.77;4.83;;;7.30;99.90;;;;;;5053715;28;20416;-69
2022/02/06 05:37:30;;;;;;;5.53;4.40;;;7.30;99.90;;;;;;5035754;28;20535;-69
2022/02/06 05:39:56;;;;;;;5.60;3.93;;;7.30;99.90;;;;;;5053765;28;20482;-69
2022/02/06 05:42:22;;;;;;;3.57;3.27;;;7.30;99.90;;;;;;5053089;28;20428;-69
2022/02/06 05:44:56;;;;;;;6.10;4.00;;;7.40;99.90;;;;;;5053223;28;20492;-69
2022/02/06 05:47:25;;;;;;;4.13;3.37;;;7.40;99.90;;;;;;5053013;28;20488;-69
2022/02/06 05:49:51;;;;;;;3.90;3.13;;;7.40;99.90;;;;;;5053790;28;20872;-69
2022/02/06 05:52:18;;;;;;;5.23;3.27;;;7.40;99.90;;;;;;5053048;28;20416;-69
2022/02/06 05:54:44;;;;;;;7.50;3.60;;;7.40;99.90;;;;;;5053172;28;20421;-69
2022/02/06 05:57:09;;;;;;;3.70;3.40;;;7.40;99.90;;;;;;5053015;28;20420;-69
2022/02/06 05:59:36;;;;;;;4.80;3.13;;;7.40;99.90;;;;;;5052733;28;20228;-69
2022/02/06 06:02:02;;;;;;;5.10;3.67;;;7.40;99.90;;;;;;5035501;28;20749;-69
2022/02/06 06:04:27;;;;;;;5.37;3.00;;;7.40;99.90;;;;;;5052914;28;20186;-70
2022/02/06 06:06:53;;;;;;;4.50;3.20;;;7.40;99.90;;;;;;5052958;28;20439;-69
2022/02/06 06:09:19;;;;;;;5.07;3.00;;;7.40;99.90;;;;;;5052914;28;20679;-69
2022/02/06 06:11:44;;;;;;;3.33;3.03;;;7.40;99.90;;;;;;5053487;28;20236;-69
2022/02/06 06:14:10;;;;;;;4.17;3.10;;;7.40;99.90;;;;;;5052744;28;20269;-69
2022/02/06 06:16:35;;;;;;;6.40;3.10;;;7.40;99.90;;;;;;5052385;28;20234;-69
2022/02/06 06:19:03;;;;;;;4.13;2.60;;;7.50;99.90;;;;;;5053199;28;20193;-69
2022/02/06 06:21:34;;;;;;;3.87;3.13;;;7.50;99.90;;;;;;5053740;28;20202;-69
2022/02/06 06:24:00;;;;;;;3.00;2.50;;;7.50;99.90;;;;;;5030436;28;20794;-69
2022/02/06 06:26:27;;;;;;;5.50;3.30;;;7.40;99.90;;;;;;5042508;28;20826;-69
2022/02/06 06:28:53;;;;;;;5.07;2.70;;;7.50;99.90;;;;;;5033270;28;20611;-69
2022/02/06 06:31:18;;;;;;;4.63;2.73;;;7.50;99.90;;;;;;5053301;28;20507;-69
2022/02/06 06:33:44;;;;;;;5.37;2.80;;;7.50;99.90;;;;;;5053299;28;20169;-69
2022/02/06 06:36:10;;;;;;;2.63;2.30;;;7.60;99.90;;;;;;5052437;28;20678;-69
2022/02/06 06:38:36;;;;;;;6.03;3.20;;;7.60;99.90;;;;;;5052481;28;20224;-69
2022/02/06 06:41:02;;;;;;;4.20;3.00;;;7.60;99.90;;;;;;5034883;28;20193;-69
2022/02/06 06:43:28;;;;;;;4.03;2.70;;;7.60;99.90;;;;;;5053355;28;20413;-70
2022/02/06 06:45:53;;;;;;;3.10;2.63;;;7.60;99.90;;;;;;5052756;28;20409;-70
2022/02/06 06:48:19;;;;;;;4.40;2.70;;;7.50;99.90;;;;;;5037419;28;20187;-69
2022/02/06 06:50:45;;;;;;;3.43;2.23;;;7.60;99.90;;;;;;5040243;28;20202;-70
2022/02/06 06:53:12;;;;;;;3.80;2.70;;;7.60;99.90;;;;;;5033838;28;20689;-69
2022/02/06 06:55:40;;;;;;;4.63;2.37;;;7.60;99.90;;;;;;5032466;28;20167;-69
2022/02/06 06:58:13;;;;;;;3.03;2.60;;;7.60;99.90;;;;;;5033128;28;20860;-73
2022/02/06 07:01:42;;;;;;;3.27;2.93;;;7.50;99.90;;;;;;5047773;28;20441;-69
2022/02/06 07:03:25;;;;;;;3.63;2.77;;;7.50;99.90;;;;;;5036994;28;20424;-69
2022/02/06 07:05:51;;;;;;;2.60;2.40;;;7.50;99.90;;;;;;5031560;28;20488;-71
2022/02/06 07:08:17;;;;;;;4.83;3.40;;;7.50;99.90;;;;;;5032032;28;20958;-69
2022/02/06 07:10:44;;;;;;;3.50;3.20;;;7.50;99.90;;;;;;5039551;28;20234;-69
2022/02/06 07:13:09;;;;;;;6.17;3.70;;;7.60;99.90;;;;;;5039349;28;20466;-69
2022/02/06 07:15:35;;;;;;;3.93;3.30;;;7.50;99.90;;;;;;5037576;28;20464;-69
2022/02/06 07:18:00;;;;;;;4.70;3.00;;;7.60;99.90;;;;;;5038555;28;20278;-68
2022/02/06 07:20:26;;;;;;;3.93;2.77;;;7.60;99.90;;;;;;5045008;28;20223;-70
2022/02/06 07:22:52;;;;;;;4.23;3.40;;;7.60;99.90;;;;;;5062841;28;20559;-67
2022/02/06 07:25:17;;;;;;;3.43;3.13;;;7.60;99.90;;;;;;5065757;28;20292;-68
2022/02/06 07:27:48;;;;;;;5.90;3.70;;;7.50;99.90;;;;;;5049423;28;20203;-69
2022/02/06 07:30:15;;;;;;;5.60;3.40;;;7.50;99.90;;;;;;5019213;28;20210;-70
2022/02/06 07:32:41;;;;;;;4.60;3.00;;;7.60;99.90;;;;;;5047675;28;20445;-69
2022/02/06 07:35:09;;;;;;;3.83;3.43;;;7.60;99.90;;;;;;5037647;28;20444;-69
2022/02/06 07:37:42;;;;;;;3.70;3.03;;;7.60;99.90;;;;;;5049519;28;20505;-69
2022/02/06 07:40:09;;;;;;;3.30;3.00;;;7.60;99.90;;;;;;5040741;28;21522;-69
2022/02/06 07:42:34;;;;;;;5.60;3.37;;;7.60;99.90;;;;;;5060900;28;20561;-69
2022/02/06 07:45:00;;;;;;;3.37;3.07;;;7.60;99.90;;;;;;5058228;28;20512;-68
2022/02/06 07:47:26;;;;;;;4.80;3.67;;;7.60;99.90;;;;;;5068682;28;20240;-68
2022/02/06 07:49:53;;;;;;;3.73;3.40;;;7.60;99.90;;;;;;5056615;28;20495;-68
2022/02/06 07:52:21;;;;;;;4.00;3.40;;;7.60;99.90;;;;;;5070302;28;20269;-69
2022/02/06 07:54:47;;;;;;;3.53;3.10;;;7.60;99.90;;;;;;5077325;28;20420;-69
2022/02/06 07:57:13;;;;;;;2.47;2.27;;;7.50;99.90;;;;;;5075477;28;20499;-68
2022/02/06 07:59:39;;;;;;;3.80;2.63;;;7.50;99.90;;;;;;5066354;28;20436;-70
2022/02/06 08:02:06;;;;;;;2.70;2.50;;;7.60;99.90;;;;;;5055510;28;20513;-69
2022/02/06 08:04:33;;;;;;;5.30;2.63;;;7.60;99.90;;;;;;5054932;28;20199;-69
2022/02/06 08:06:59;;;;;;;2.70;2.50;;;7.60;99.90;;;;;;5053389;28;20454;-69
2022/02/06 08:10:11;;;;;;;3.57;2.53;;;7.60;99.90;;;;;;5054411;28;20477;-71
2022/02/06 08:12:12;;;;;;;2.60;2.40;;;7.60;99.90;;;;;;5035941;28;20234;-69
2022/02/06 08:14:51;;;;;;;2.50;2.30;;;7.60;99.90;;;;;;5054140;28;20437;-69
2022/02/06 08:17:19;;;;;;;2.47;2.00;;;7.60;99.90;;;;;;5043111;28;20484;-69
2022/02/06 08:19:45;;;;;;;2.30;2.10;;;7.50;99.90;;;;;;5035710;28;20445;-69
2022/02/06 08:22:11;;;;;;;4.27;2.07;;;7.50;99.90;;;;;;5033980;28;20485;-69
2022/02/06 08:24:37;;;;;;;2.20;2.10;;;7.60;99.90;;;;;;5050722;28;20543;-69
2022/02/06 08:27:03;;;;;;;3.97;2.30;;;7.60;99.90;;;;;;5053366;28;20217;-69
2022/02/06 08:29:29;;;;;;;2.20;1.90;;;7.60;99.90;;;;;;5053320;28;20479;-68
2022/02/06 08:31:54;;;;;;;3.07;2.00;;;7.60;99.90;;;;;;5037552;28;20469;-69
2022/02/06 08:34:20;;;;;;;3.00;1.87;;;7.60;99.90;;;;;;5033856;28;20762;-69
2022/02/06 08:36:46;;;;;;;2.50;1.90;;;7.60;99.90;;;;;;5032343;28;20268;-69
2022/02/06 08:39:11;;;;;;;1.90;1.80;;;7.60;99.90;;;;;;5033993;28;20476;-69
2022/02/06 08:41:37;;;;;;;2.00;1.60;;;7.60;99.90;;;;;;5038119;28;20204;-70
2022/02/06 08:44:03;;;;;;;3.30;1.70;;;7.50;99.90;;;;;;5032063;28;20210;-70
2022/02/06 08:46:29;;;;;;;2.10;1.90;;;7.60;99.90;;;;;;5032733;28;20205;-69
2022/02/06 08:48:55;;;;;;;2.27;2.07;;;7.60;99.90;;;;;;5038277;28;20478;-70
2022/02/06 08:51:22;;;;;;;2.40;2.20;;;7.60;99.90;;;;;;5053576;28;20222;-70
2022/02/06 08:53:47;;;;;;;2.90;2.07;;;7.60;99.90;;;;;;5052433;28;20498;-67
2022/02/06 08:56:13;;;;;;;2.40;2.03;;;7.60;99.90;;;;;;5052462;28;20524;-69
2022/02/06 08:58:38;;;;;;;2.23;1.93;;;7.70;99.90;;;;;;5065155;22;20268;-72
2022/02/06 09:01:04;;;;;;;1.97;1.80;;;7.70;99.90;;;;;;5047817;28;20585;-72
2022/02/06 09:03:30;;;;;;;1.93;1.83;;;7.70;99.90;;;;;;5052037;28;20220;-71
2022/02/06 09:05:55;;;;;;;1.60;1.50;;;7.80;99.90;;;;;;5051273;28;20238;-71
2022/02/06 09:08:21;;;;;;;2.30;1.77;;;7.80;99.90;;;;;;5048525;28;20270;-72
2022/02/06 09:10:47;;;;;;;2.60;2.40;;;7.80;99.90;;;;;;5033334;28;20211;-71
2022/02/06 09:13:13;;;;;;;4.03;2.00;;;7.70;99.90;;;;;;5043684;28;20408;-71
2022/02/06 09:15:39;;;;;;;1.90;1.80;;;7.80;99.90;;;;;;5031830;28;20445;-71
2022/02/06 09:18:04;;;;;;;2.70;1.80;;;7.80;99.90;;;;;;5024016;28;20212;-71
2022/02/06 09:20:32;;;;;;;1.57;1.47;;;7.80;99.90;;;;;;5015185;28;20213;-72
2022/02/06 09:22:59;;;;;;;2.20;1.40;;;7.80;99.90;;;;;;5026363;28;20277;-72
2022/02/06 09:25:25;;;;;;;2.30;1.47;;;7.80;99.90;;;;;;5031009;28;20430;-72
2022/02/06 09:27:50;;;;;;;1.70;1.60;;;7.80;99.90;;;;;;5022741;28;20848;-72
2022/02/06 09:30:19;;;;;;;1.70;1.40;;;7.80;99.90;;;;;;5024985;28;20224;-72
2022/02/06 09:35:11;;;;;;;1.50;1.37;;;7.90;99.90;;;;;;5029254;28;20558;-72
2022/02/06 09:37:37;;;;;;;1.40;1.30;;;7.90;99.90;;;;;;5031269;28;20425;-71
2022/02/06 09:40:09;;;;;;;1.73;1.63;;;7.90;99.90;;;;;;5031998;28;20466;-72
2022/02/06 09:42:36;;;;;;;2.03;1.40;;;7.80;99.90;;;;;;5033471;28;20801;-72
2022/02/06 09:45:02;;;;;;;2.90;1.50;;;7.80;99.90;;;;;;5051154;28;20556;-72
2022/02/06 09:47:30;;;;;;;1.30;1.30;;;7.80;99.90;;;;;;5039002;28;20527;-72
2022/02/06 09:49:56;;;;;;;1.70;1.60;;;7.80;99.90;;;;;;5031274;28;21728;-71
2022/02/06 09:52:26;;;;;;;3.07;1.47;;;7.80;99.90;;;;;;5012288;28;20433;-71
2022/02/06 09:54:54;;;;;;;2.17;1.70;;;7.70;99.90;;;;;;5035086;28;20207;-71
2022/02/06 09:57:24;;;;;;;2.10;2.00;;;7.70;99.90;;;;;;5029904;28;20424;-72
2022/02/06 09:59:52;;;;;;;2.03;1.90;;;7.70;99.90;;;;;;5030248;28;20542;-71
2022/02/06 10:02:19;;;;;;;2.23;1.70;;;7.70;99.90;;;;;;5026054;28;20423;-71
2022/02/06 10:04:48;;;;;;;1.90;1.80;;;7.70;99.90;;;;;;5017754;28;20413;-71
2022/02/06 10:07:21;;;;;;;1.80;1.70;;;7.70;99.90;;;;;;5030781;28;20410;-70
2022/02/06 10:09:53;;;;;;;1.50;1.40;;;7.70;99.90;;;;;;5030979;28;20458;-70
2022/02/06 10:12:21;;;;;;;1.60;1.50;;;7.70;99.90;;;;;;5030852;28;20504;-70
2022/02/06 10:14:48;;;;;;;1.90;1.80;;;7.80;99.90;;;;;;5032115;28;20414;-72
2022/02/06 10:17:13;;;;;;;1.67;1.57;;;7.80;99.90;;;;;;5028137;28;20519;-70
2022/02/06 10:19:53;;;;;;;1.47;1.37;;;7.80;99.90;;;;;;5025763;28;20920;-70
2022/02/06 10:22:33;;;;;;;1.50;1.40;;;7.80;99.90;;;;;;5030747;28;20204;-70
2022/02/06 10:25:05;;;;;;;1.50;1.40;;;7.80;99.90;;;;;;5036367;28;20436;-70
2022/02/06 10:28:00;;;;;;;1.67;1.57;;;7.80;99.90;;;;;;5050167;28;20851;-71
2022/02/06 10:30:38;;;;;;;1.50;1.40;;;7.80;99.90;;;;;;5049976;28;20452;-71
2022/02/06 10:33:18;;;;;;;1.03;1.03;;;7.70;99.90;;;;;;5050672;28;20913;-70
2022/02/06 10:35:48;;;;;;;1.20;1.10;;;7.70;99.90;;;;;;5048665;28;20468;-71
2022/02/06 10:38:17;;;;;;;1.83;1.73;;;7.60;99.90;;;;;;5046816;28;20855;-71
2022/02/06 10:40:45;;;;;;;1.73;1.50;;;7.60;99.90;;;;;;5030646;28;20497;-72
2022/02/06 10:43:11;;;;;;;1.30;1.20;;;7.70;99.90;;;;;;5012558;28;20489;-71
2022/02/06 10:45:39;;;;;;;1.83;1.60;;;7.70;99.90;;;;;;5030378;28;20429;-71
2022/02/06 10:48:19;;;;;;;1.40;1.30;;;7.70;99.90;;;;;;5030934;28;20481;-71
2022/02/06 10:50:45;;;;;;;1.50;1.40;;;7.70;99.90;;;;;;5048563;28;20467;-71
2022/02/06 10:53:15;;;;;;;1.13;1.13;;;7.70;99.90;;;;;;5050445;28;20405;-70
2022/02/06 10:56:10;;;;;;;1.10;1.00;;;7.60;99.90;;;;;;5050225;28;20193;-70
2022/02/06 10:58:37;;;;;;;1.30;1.20;;;7.60;99.90;;;;;;4949569;29;20846;-71
2022/02/06 11:01:23;;;;;;;1.37;1.30;;;7.70;99.90;;;;;;4917400;29;20431;-71
2022/02/06 11:03:51;;;;;;;1.40;1.30;;;7.50;99.90;;;;;;4914081;29;20773;-71
2022/02/06 11:06:44;;;;;;;7.20;1.40;;;7.60;99.90;;;;;;4915603;29;20510;-69
2022/02/06 11:09:28;;;;;;;1.20;1.20;;;7.50;99.90;;;;;;4915503;29;20572;-70
2022/02/06 11:12:01;;;;;;;1.23;1.23;;;7.50;99.90;;;;;;4916844;29;20441;-70
2022/02/06 11:14:29;;;;;;;1.33;1.23;;;7.60;99.90;;;;;;4915623;29;20403;-71
2022/02/06 11:16:56;;;;;;;1.10;1.10;;;7.50;99.90;;;;;;4899599;29;20421;-71
2022/02/06 11:19:22;;;;;;;0.90;0.90;;;7.50;99.90;;;;;;4915478;29;20470;-71
2022/02/06 11:22:07;;;;;;;1.00;1.00;;;7.50;99.90;;;;;;4916762;29;20483;-71
2022/02/06 11:24:37;;;;;;;1.33;1.00;;;7.40;99.90;;;;;;4915737;29;20179;-70
2022/02/06 11:27:07;;;;;;;1.30;1.10;;;7.50;99.90;;;;;;4915238;29;20794;-72
2022/02/06 11:29:33;;;;;;;1.13;1.03;;;7.50;99.90;;;;;;4915363;29;20870;-70
2022/02/06 11:32:00;;;;;;;2.30;0.97;;;7.50;99.90;;;;;;4916563;29;20471;-71
2022/02/06 11:34:25;;;;;;;1.33;1.23;;;7.50;99.90;;;;;;4941397;28;20453;-70
2022/02/06 11:45:55;;;;;;;0.80;0.80;;;7.40;99.90;;;;;;5033544;28;20804;-71
2022/02/06 11:48:26;;;;;;;1.50;1.30;;;7.50;99.90;;;;;;5033911;28;20491;-71
2022/02/06 11:50:54;;;;;;;0.90;0.90;;;7.40;99.90;;;;;;5033723;28;20438;-71
2022/02/06 11:53:38;;;;;;;1.27;0.90;;;7.50;99.90;;;;;;5034478;28;20487;-71
2022/02/06 11:56:30;;;;;;;0.80;0.80;;;7.40;99.90;;;;;;5013903;28;20818;-71
2022/02/06 11:59:14;;;;;;;0.70;0.70;;;7.50;99.90;;;;;;5013591;28;20454;-71
2022/02/06 12:01:42;;;;;;;0.70;0.70;;;7.50;99.90;;;;;;5014105;28;20395;-70
2022/02/06 12:04:23;;;;;;;1.20;0.90;;;7.50;99.90;;;;;;5025367;28;20501;-71
2022/02/06 12:06:51;;;;;;;1.20;0.90;;;7.50;99.90;;;;;;5033095;28;20941;-70
2022/02/06 12:09:24;;;;;;;1.37;1.10;;;7.50;99.90;;;;;;5033190;28;20418;-70
2022/02/06 12:12:09;;;;;;;0.73;0.73;;;7.50;99.90;;;;;;5033580;28;20410;-71
2022/02/06 12:14:39;;;;;;;0.80;0.80;;;7.50;99.90;;;;;;5033126;28;20479;-70
2022/02/06 12:17:21;;;;;;;1.33;0.87;;;7.50;99.90;;;;;;5033361;28;20394;-72
2022/02/06 12:20:10;;;;;;;1.27;1.10;;;7.50;99.90;;;;;;5033522;28;20442;-71
2022/02/06 12:22:45;;;;;;;1.37;0.80;;;7.50;99.90;;;;;;5033701;28;20397;-71
2022/02/06 12:25:30;;;;;;;1.30;1.10;;;7.50;99.90;;;;;;5034461;28;20421;-71
2022/02/06 12:28:11;;;;;;;2.10;0.90;;;7.50;99.90;;;;;;5033070;28;20415;-71
2022/02/06 12:30:39;;;;;;;1.80;1.10;;;7.50;99.90;;;;;;5032825;28;20540;-71
2022/02/06 12:37:06;;;;;;;1.17;1.10;;;7.50;99.90;;;;;;4971025;28;20851;-71
2022/02/06 12:39:33;;;;;;;2.10;1.70;;;7.60;99.90;;;;;;4971122;28;20443;-70
2022/02/06 12:42:00;;;;;;;1.80;1.30;;;7.60;99.90;;;;;;4971318;28;20444;-71
2022/02/06 12:44:28;;;;;;;1.03;0.80;;;7.60;99.90;;;;;;4971468;28;20770;-71
2022/02/06 12:47:00;;;;;;;0.80;0.80;;;7.60;99.90;;;;;;4970793;28;20891;-70
2022/02/06 12:49:30;;;;;;;0.80;0.80;;;7.60;99.90;;;;;;4970915;28;20471;-71
2022/02/06 12:51:57;;;;;;;1.40;0.80;;;7.60;99.90;;;;;;4970777;28;20439;-71
2022/02/06 12:54:24;;;;;;;1.03;1.00;;;7.60;99.90;;;;;;4960670;28;20834;-71
2022/02/06 12:56:54;;;;;;;1.30;1.20;;;7.60;99.90;;;;;;4945694;29;21049;-70
2022/02/06 12:59:21;;;;;;;1.30;1.20;;;7.60;99.90;;;;;;4954090;28;20453;-71
2022/02/06 13:01:48;;;;;;;1.50;1.40;;;7.60;99.90;;;;;;4956490;28;20480;-70
2022/02/06 13:04:16;;;;;;;1.63;1.53;;;7.60;99.90;;;;;;4951344;29;20437;-70
2022/02/06 13:06:44;;;;;;;1.60;1.50;;;7.60;99.90;;;;;;4950655;29;20421;-70
2022/02/06 13:09:27;;;;;;;1.50;1.40;;;7.70;99.90;;;;;;4958489;28;20434;-70
2022/02/06 13:17:59;;;;;;;1.70;1.60;;;7.80;99.90;;;;;;5013892;28;20784;-71
2022/02/06 13:23:07;;;;;;;1.67;1.30;;;7.80;99.90;;;;;;5028575;28;20536;-71
2022/02/06 13:28:28;;;;;;;4.20;1.77;;;8.00;99.90;;;;;;5028651;28;20442;-71
2022/02/06 13:31:15;;;;;;;1.40;1.30;;;8.00;99.90;;;;;;5028427;28;20465;-71
2022/02/06 13:38:43;;;;;;;1.37;1.00;;;7.90;99.90;;;;;;5028606;28;20435;-71
2022/02/06 13:41:17;;;;;;;2.70;1.10;;;7.70;99.90;;;;;;5028451;28;20409;-71
2022/02/06 13:43:45;;;;;;;1.10;1.00;;;7.50;99.90;;;;;;5029234;28;20594;-71
2022/02/06 13:46:32;;;;;;;1.30;1.20;;;7.50;99.90;;;;;;5027984;28;20414;-71
2022/02/06 13:48:59;;;;;;;2.60;1.50;;;7.30;99.90;;;;;;5024727;28;20473;-71
2022/02/06 13:51:43;;;;;;;1.43;1.10;;;7.30;99.90;;;;;;5027969;28;20461;-71
2022/02/06 13:54:08;;;;;;;1.27;1.17;;;7.20;99.90;;;;;;5032298;28;20426;-71
2022/02/06 13:56:35;;;;;;;1.43;1.27;;;7.10;99.90;;;;;;5027548;28;20426;-71
2022/02/06 13:59:13;;;;;;;3.30;1.50;;;7.10;99.90;;;;;;5011618;28;20242;-71
2022/02/06 14:01:45;;;;;;;2.90;2.00;;;7.10;99.90;;;;;;5041349;28;20413;-71
2022/02/06 14:04:31;;;;;;;4.50;2.27;;;7.10;99.90;;;;;;5027969;28;20449;-71
2022/02/06 14:07:16;;;;;;;3.10;1.90;;;7.20;99.90;;;;;;5034296;28;20421;-71
2022/02/06 14:12:17;;;;;;;3.20;1.50;;;7.30;99.90;;;;;;5026978;28;20409;-71
2022/02/06 14:14:53;;;;;;;1.10;1.00;;;7.30;99.90;;;;;;5025450;28;20448;-71
2022/02/06 14:17:21;;;;;;;4.00;1.20;;;7.40;99.90;;;;;;5026244;28;20405;-71
2022/02/06 14:19:48;;;;;;;1.47;1.33;;;7.40;99.90;;;;;;5028635;28;20529;-70
2022/02/06 14:22:29;;;;;;;2.23;1.33;;;7.40;99.90;;;;;;5023168;28;20663;-71
2022/02/06 14:24:57;;;;;;;2.47;1.70;;;7.40;99.90;;;;;;5027549;28;21077;-71
2022/02/06 14:27:39;;;;;;;3.40;1.40;;;7.40;99.90;;;;;;5026775;28;20433;-71
2022/02/06 14:30:06;;;;;;;2.37;1.40;;;7.40;99.90;;;;;;5028485;28;21002;-71
2022/02/06 14:32:33;;;;;;;2.90;1.97;;;7.40;99.90;;;;;;5027288;28;20939;-71
2022/02/06 14:35:06;;;;;;;1.40;1.20;;;7.30;99.90;;;;;;5027302;28;20437;-69
2022/02/06 14:37:53;;;;;;;1.17;1.07;;;7.30;99.90;;;;;;5028220;28;20417;-70
2022/02/06 14:43:16;;;;;;;2.20;1.00;;;7.30;99.90;;;;;;5033959;28;20996;-70
2022/02/06 14:45:50;;;;;;;1.63;0.90;;;7.30;99.90;;;;;;5033953;28;20899;-70
2022/02/06 14:48:17;;;;;;;2.37;1.20;;;7.40;99.90;;;;;;5033668;28;20518;-70
2022/02/06 14:50:46;;;;;;;4.50;1.60;;;7.40;99.90;;;;;;5035921;28;20486;-69
2022/02/06 14:53:13;;;;;;;1.90;1.27;;;7.50;99.90;;;;;;5025458;28;20410;-71
2022/02/06 14:55:39;;;;;;;1.43;1.00;;;7.50;99.90;;;;;;5036016;28;20421;-70
2022/02/06 14:58:05;;;;;;;1.50;1.40;;;7.50;99.90;;;;;;5033049;28;20453;-71
2022/02/06 15:00:30;;;;;;;1.20;1.10;;;7.60;99.90;;;;;;5033692;28;20506;-71
2022/02/06 15:02:56;;;;;;;2.63;1.30;;;7.50;99.90;;;;;;5033516;28;20255;-71
2022/02/06 15:05:21;;;;;;;1.40;1.30;;;7.50;99.90;;;;;;5033417;28;20225;-70
2022/02/06 15:07:47;;;;;;;1.17;1.10;;;7.60;99.90;;;;;;5039915;28;20214;-71
2022/02/06 15:10:12;;;;;;;1.43;1.10;;;7.50;99.90;;;;;;5033338;28;20329;-71
2022/02/06 15:12:38;;;;;;;3.97;2.30;;;7.50;99.90;;;;;;5033795;28;20187;-71
2022/02/06 15:15:05;;;;;;;4.30;1.80;;;7.50;99.90;;;;;;5033811;28;20546;-70
2022/02/06 15:17:32;;;;;;;2.17;1.50;;;7.50;99.90;;;;;;5048892;22;20227;-69
2022/02/06 15:19:58;;;;;;;3.13;1.67;;;7.40;99.90;;;;;;5051067;28;20827;-67
2022/02/06 15:22:24;;;;;;;2.17;1.70;;;7.40;99.90;;;;;;5055296;28;20417;-69